| time (UTC) | temp F | wind direction | speed knots | gust knots | rain 1hr in | rain 24hr in | rain mn in | humidity % | barometer mb |
| 20260506124526 | 62 | 0.0 | 0.0 | 0.00 | 0.01 | 0.01 | 74 | 990.2 | |
| 20260506123517 | 63 | 0.0 | 0.0 | 0.00 | 0.01 | 0.01 | 71 | 990.0 | |
| 20260506122614 | 64 | 0.0 | 0.0 | 0.00 | 0.01 | 0.01 | 69 | 989.9 | |
| 20260506121605 | 65 | 0.0 | 0.0 | 0.00 | 0.01 | 0.01 | 67 | 990.0 | |
| 20260506120602 | 67 | 0.0 | 0.0 | 0.00 | 0.01 | 0.01 | 66 | 990.0 | |
| 20260506115554 | 65 | 0.0 | 0.0 | 0.00 | 0.01 | 0.01 | 69 | 989.9 | |
| 20260506114551 | 63 | 0.0 | 0.0 | 0.00 | 0.01 | 0.01 | 73 | 990.1 | |
| 20260506113602 | 62 | 0.0 | 0.0 | 0.00 | 0.01 | 0.01 | 75 | 990.3 | |
| 20260506112539 | 63 | 0.0 | 0.0 | 0.00 | 0.01 | 0.01 | 73 | 990.4 | |
| 20260506111529 | 63 | 0.0 | 0.0 | 0.00 | 0.01 | 0.01 | 71 | 990.2 | |
| 20260506110526 | 65 | 0.0 | 0.0 | 0.00 | 0.01 | 0.01 | 68 | 990.2 | |
| 20260506105517 | 65 | 0.0 | 0.0 | 0.00 | 0.01 | 0.01 | 68 | 990.1 | |
| 20260506104614 | 65 | 0.0 | 0.0 | 0.00 | 0.01 | 0.01 | 68 | 990.0 | |
| 20260506103605 | 65 | 0.0 | 0.0 | 0.00 | 0.01 | 0.01 | 69 | 989.9 | |
| 20260506102602 | 64 | 0.0 | 0.0 | 0.00 | 0.01 | 0.01 | 69 | 990.1 | |
| 20260506101553 | 64 | 0.0 | 0.0 | 0.00 | 0.01 | 0.01 | 72 | 990.0 | |
| 20260506100551 | 62 | 0.0 | 0.0 | 0.00 | 0.01 | 0.01 | 74 | 990.1 | |
| 20260506095542 | 61 | 0.0 | 0.0 | 0.00 | 0.01 | 0.01 | 77 | 990.0 | |
| 20260506094538 | 60 | 0.0 | 0.0 | 0.00 | 0.01 | 0.01 | 77 | 990.1 | |
| 20260506093529 | 61 | 0.0 | 0.0 | 0.00 | 0.01 | 0.01 | 75 | 990.2 | |
| 20260506092526 | 61 | 0.0 | 0.0 | 0.00 | 0.01 | 0.01 | 75 | 989.8 | |
| 20260506091517 | 61 | 0.0 | 0.0 | 0.01 | 0.01 | 0.01 | 75 | 989.8 | |
| 20260506090614 | 61 | 0.0 | 0.0 | 0.01 | 0.01 | 0.01 | 74 | 989.8 | |
| 20260506085605 | 62 | 0.0 | 0.0 | 0.01 | 0.01 | 0.01 | 74 | 989.9 | |
| 20260506084622 | 61 | 0.0 | 0.0 | 0.01 | 0.01 | 0.01 | 78 | 989.8 | |
| 20260506083554 | 58 | 0.0 | 0.0 | 0.01 | 0.01 | 0.01 | 87 | 989.6 | |
| 20260506082610 | 56 | 0.0 | 0.0 | 0.01 | 0.01 | 0.01 | 87 | 989.6 | |
| 20260506081541 | 56 | 0.0 | 0.0 | 0.00 | 0.00 | 0.00 | 85 | 989.7 | |
| 20260506080558 | 57 | 0.0 | 0.0 | 0.00 | 0.00 | 0.00 | 81 | 989.9 | |
| 20260506073517 | 56 | 0.0 | 0.0 | 0.00 | 0.00 | 0.00 | 83 | 989.5 | |
| 20260506072614 | 56 | 0.0 | 0.0 | 0.00 | 0.00 | 0.00 | 83 | 989.6 | |
| 20260506071605 | 56 | 0.0 | 0.0 | 0.00 | 0.00 | 0.00 | 84 | 989.8 | |
| 20260506070602 | 56 | 0.0 | 0.0 | 0.00 | 0.00 | 0.00 | 85 | 989.7 | |
| 20260506061529 | 54 | 0.0 | 0.0 | 0.00 | 0.00 | 0.00 | 89 | 989.4 | |
| 20260506060526 | 54 | 0.0 | 0.0 | 0.00 | 0.00 | 0.00 | 90 | 989.5 | |
| 20260506050550 | 51 | 0.0 | 0.0 | 0.00 | 0.00 | 0.00 | 99 | 990.1 | |
| 20260506044559 | 51 | 0.0 | 0.0 | 0.00 | 0.00 | 0.00 | 99 | 990.3 | |
| 20260506043529 | 50 | 0.0 | 0.0 | 0.00 | 0.00 | 0.00 | 99 | 990.2 | |
| 20260506042526 | 50 | 0.0 | 0.0 | 0.00 | 0.00 | 0.00 | 99 | 990.0 | |
| 20260506041517 | 50 | 0.0 | 0.0 | 0.00 | 0.00 | 0.00 | 99 | 990.3 | |
| 20260506040614 | 50 | 0.0 | 0.0 | 0.00 | 0.00 | 0.00 | 99 | 990.4 | |
| 20260506035605 | 50 | 0.0 | 0.0 | 0.00 | 0.00 | 0.00 | 99 | 990.7 | |
| 20260506034602 | 50 | 0.0 | 0.0 | 0.00 | 0.00 | 0.00 | 99 | 990.7 | |
| 20260506033554 | 50 | 0.0 | 0.0 | 0.00 | 0.00 | 0.00 | 99 | 990.9 | |
| 20260506032551 | 50 | 0.0 | 0.0 | 0.00 | 0.00 | 0.00 | 99 | 991.2 | |
| 20260506031607 | 50 | 0.0 | 0.0 | 0.00 | 0.00 | 0.00 | 99 | 991.1 | |
| 20260506030538 | 50 | 0.0 | 0.0 | 0.00 | 0.00 | 0.00 | 99 | 991.3 | |
| 20260506025529 | 50 | 0.0 | 0.0 | 0.00 | 0.00 | 0.00 | 99 | 991.4 | |
| 20260506024526 | 50 | 0.0 | 0.0 | 0.00 | 0.00 | 0.00 | 99 | 991.5 | |
| 20260506023517 | 50 | 0.0 | 0.0 | 0.00 | 0.00 | 0.00 | 99 | 991.7 | |
| 20260506022614 | 50 | 0.0 | 0.0 | 0.00 | 0.00 | 0.00 | 99 | 991.7 | |
| 20260506021605 | 50 | 0.0 | 0.0 | 0.00 | 0.00 | 0.00 | 99 | 991.7 | |
| 20260506020602 | 50 | 0.0 | 0.0 | 0.00 | 0.00 | 0.00 | 99 | 991.6 | |
| 20260506015614 | 50 | 0.0 | 0.0 | 0.00 | 0.00 | 0.00 | 99 | 991.6 | |
| 20260506014550 | 50 | 0.0 | 0.0 | 0.00 | 0.00 | 0.00 | 99 | 991.8 | |
| 20260506013541 | 50 | 0.0 | 0.0 | 0.00 | 0.00 | 0.00 | 99 | 991.8 | |
| 20260506012538 | 50 | 0.0 | 0.0 | 0.00 | 0.00 | 0.00 | 99 | 992.0 | |
| 20260506011529 | 50 | 0.0 | 0.0 | 0.00 | 0.00 | 0.00 | 99 | 992.1 | |
| 20260506010526 | 50 | 0.0 | 0.0 | 0.00 | 0.00 | 0.00 | 99 | 992.3 | |
| 20260506005517 | 50 | 0.0 | 0.0 | 0.00 | 0.00 | 0.00 | 99 | 992.3 | |
| 20260506004614 | 50 | 0.0 | 0.0 | 0.00 | 0.00 | 0.00 | 99 | 992.1 | |
| 20260506003625 | 50 | 0.0 | 0.0 | 0.00 | 0.00 | 0.00 | 99 | 992.2 | |
| 20260506002602 | 50 | 0.0 | 0.0 | 0.00 | 0.00 | 0.00 | 99 | 992.0 | |
| 20260506001554 | 50 | 0.0 | 0.0 | 0.00 | 0.00 | 0.00 | 99 | 992.2 | |
| 20260506000550 | 50 | 0.0 | 0.0 | 0.00 | 0.00 | 0.00 | 99 | 992.6 | |
| 20260505235541 | 51 | 0.0 | 0.0 | 0.00 | 0.00 | 0.00 | 99 | 992.5 | |
| 20260505234538 | 51 | 0.0 | 0.0 | 0.00 | 0.00 | 0.00 | 99 | 992.9 | |
| 20260505233530 | 51 | 0.0 | 0.0 | 0.00 | 0.00 | 0.00 | 99 | 992.8 | |
| 20260505232526 | 51 | 0.0 | 0.0 | 0.00 | 0.00 | 0.00 | 99 | 992.9 | |
| 20260505231517 | 51 | 0.0 | 0.0 | 0.00 | 0.00 | 0.00 | 99 | 993.0 | |
| 20260505230614 | 51 | 0.0 | 0.0 | 0.00 | 0.00 | 0.00 | 99 | 993.1 | |
| 20260505225605 | 51 | 0.0 | 0.0 | 0.00 | 0.00 | 0.00 | 99 | 992.9 | |
| 20260505224602 | 51 | 0.0 | 0.0 | 0.00 | 0.00 | 0.00 | 99 | 992.9 | |
| 20260505223554 | 51 | 0.0 | 0.0 | 0.00 | 0.00 | 0.00 | 99 | 992.9 | |
| 20260505222551 | 51 | 0.0 | 0.0 | 0.00 | 0.00 | 0.00 | 99 | 993.1 | |
| 20260505221601 | 51 | 0.0 | 0.0 | 0.00 | 0.00 | 0.00 | 99 | 993.0 | |
| 20260505220558 | 51 | 0.0 | 0.0 | 0.00 | 0.00 | 0.00 | 99 | 992.9 | |
| 20260505215529 | 51 | 0.0 | 0.0 | 0.00 | 0.00 | 0.00 | 99 | 992.9 | |
| 20260505214526 | 51 | 0.0 | 0.0 | 0.00 | 0.00 | 0.00 | 99 | 993.0 | |
| 20260505213537 | 51 | 0.0 | 0.0 | 0.00 | 0.00 | 0.00 | 99 | 993.0 | |
| 20260505212614 | 51 | 0.0 | 0.0 | 0.00 | 0.00 | 0.00 | 99 | 993.0 | |
| 20260505211605 | 51 | 0.0 | 0.0 | 0.00 | 0.00 | 0.00 | 99 | 993.0 | |
| 20260505210602 | 51 | 0.0 | 0.0 | 0.00 | 0.00 | 0.00 | 99 | 993.1 | |
| 20260505205554 | 51 | 0.0 | 0.0 | 0.00 | 0.00 | 0.00 | 98 | 993.2 | |
| 20260505204551 | 51 | 0.0 | 0.0 | 0.00 | 0.00 | 0.00 | 97 | 993.2 | |
| 20260505203541 | 51 | 0.0 | 0.0 | 0.00 | 0.00 | 0.00 | 96 | 993.3 | |
| 20260505202538 | 51 | 0.0 | 0.0 | 0.00 | 0.00 | 0.00 | 95 | 993.3 | |
| 20260505201549 | 52 | 0.0 | 0.0 | 0.00 | 0.00 | 0.00 | 95 | 993.4 | |
| 20260505200526 | 52 | 0.0 | 0.0 | 0.00 | 0.00 | 0.00 | 94 | 993.4 | |
| 20260505195517 | 52 | 0.0 | 0.0 | 0.00 | 0.00 | 0.00 | 93 | 993.3 | |
| 20260505194614 | 52 | 0.0 | 0.0 | 0.00 | 0.00 | 0.00 | 91 | 993.4 | |
| 20260505193625 | 53 | 0.0 | 0.0 | 0.00 | 0.00 | 0.00 | 90 | 993.5 | |
| 20260505192602 | 53 | 0.0 | 0.0 | 0.00 | 0.00 | 0.00 | 90 | 993.5 | |
| 20260505191554 | 53 | 0.0 | 0.0 | 0.00 | 0.00 | 0.00 | 89 | 993.6 | |
| 20260505190550 | 54 | 0.0 | 0.0 | 0.00 | 0.00 | 0.00 | 89 | 993.4 | |
| 20260505185601 | 54 | 0.0 | 0.0 | 0.00 | 0.00 | 0.00 | 88 | 993.5 | |
| 20260505184538 | 55 | 0.0 | 0.0 | 0.00 | 0.00 | 0.00 | 87 | 993.6 | |
| 20260505183529 | 55 | 0.0 | 0.0 | 0.00 | 0.00 | 0.00 | 86 | 993.4 | |
| 20260505182526 | 55 | 0.0 | 0.0 | 0.00 | 0.00 | 0.00 | 86 | 993.3 | |
| 20260505181517 | 55 | 0.0 | 0.0 | 0.00 | 0.00 | 0.00 | 87 | 993.2 | |
| 20260505180614 | 56 | 0.0 | 0.0 | 0.00 | 0.00 | 0.00 | 86 | 993.2 | |
| 20260505175605 | 56 | 0.0 | 0.0 | 0.00 | 0.00 | 0.00 | 85 | 993.0 | |
| 20260505174602 | 56 | 0.0 | 0.0 | 0.00 | 0.00 | 0.00 | 84 | 992.9 | |
| 20260505173553 | 57 | 0.0 | 0.0 | 0.00 | 0.00 | 0.00 | 83 | 992.9 | |
| 20260505172550 | 57 | 0.0 | 0.0 | 0.00 | 0.00 | 0.00 | 82 | 993.0 | |
| 20260505171541 | 57 | 0.0 | 0.0 | 0.00 | 0.00 | 0.00 | 83 | 993.0 | |
| 20260505170538 | 58 | 0.0 | 0.0 | 0.00 | 0.00 | 0.00 | 82 | 993.1 | |
| 20260505165549 | 58 | 0.0 | 0.0 | 0.00 | 0.00 | 0.00 | 82 | 993.1 | |
| 20260505164526 | 58 | 0.0 | 0.0 | 0.00 | 0.00 | 0.00 | 80 | 993.2 | |
| 20260505163517 | 58 | 0.0 | 0.0 | 0.00 | 0.00 | 0.00 | 80 | 993.1 | |
| 20260505162614 | 59 | 0.0 | 0.0 | 0.00 | 0.00 | 0.00 | 80 | 993.1 | |
| 20260505161605 | 59 | 0.0 | 0.0 | 0.00 | 0.00 | 0.00 | 79 | 993.0 | |
| 20260505160602 | 59 | 0.0 | 0.0 | 0.00 | 0.00 | 0.00 | 77 | 993.2 | |
| 20260505152558 | 60 | 0.0 | 0.0 | 0.00 | 0.00 | 0.00 | 74 | 993.3 | |
| 20260505151529 | 60 | 0.0 | 0.0 | 0.00 | 0.00 | 0.00 | 72 | 993.4 | |
| 20260505150526 | 61 | 0.0 | 0.0 | 0.00 | 0.00 | 0.00 | 69 | 993.6 |